sensor_id;sensor_type;location;lat;lon;timestamp;temperature;humidity
19039;DHT22;9652;49.014;12.052;2024-03-23T00:54:24;13.50;71.50
19039;DHT22;9652;49.014;12.052;2024-03-23T00:56:50;13.40;71.50
19039;DHT22;9652;49.014;12.052;2024-03-23T00:59:18;13.40;71.50
19039;DHT22;9652;49.014;12.052;2024-03-23T01:01:45;13.30;71.60
19039;DHT22;9652;49.014;12.052;2024-03-23T01:04:12;13.30;71.60
19039;DHT22;9652;49.014;12.052;2024-03-23T01:06:38;13.20;71.60
19039;DHT22;9652;49.014;12.052;2024-03-23T01:09:05;13.20;71.60
19039;DHT22;9652;49.014;12.052;2024-03-23T01:11:33;13.10;71.80
19039;DHT22;9652;49.014;12.052;2024-03-23T01:14:00;13.10;72.10
19039;DHT22;9652;49.014;12.052;2024-03-23T01:16:26;13.00;72.10
19039;DHT22;9652;49.014;12.052;2024-03-23T01:18:53;13.00;73.10
19039;DHT22;9652;49.014;12.052;2024-03-23T01:21:20;13.00;72.40
19039;DHT22;9652;49.014;12.052;2024-03-23T01:23:46;12.90;72.50
19039;DHT22;9652;49.014;12.052;2024-03-23T01:26:14;12.90;73.30
19039;DHT22;9652;49.014;12.052;2024-03-23T01:28:41;12.80;72.40
19039;DHT22;9652;49.014;12.052;2024-03-23T01:31:09;12.80;72.50
19039;DHT22;9652;49.014;12.052;2024-03-23T01:33:35;12.80;72.40
19039;DHT22;9652;49.014;12.052;2024-03-23T01:36:03;12.70;72.40
19039;DHT22;9652;49.014;12.052;2024-03-23T01:38:30;12.70;72.40
19039;DHT22;9652;49.014;12.052;2024-03-23T01:40:57;12.70;72.40
19039;DHT22;9652;49.014;12.052;2024-03-23T01:43:23;12.60;72.50
19039;DHT22;9652;49.014;12.052;2024-03-23T01:45:52;12.60;72.60
19039;DHT22;9652;49.014;12.052;2024-03-23T01:48:19;12.60;72.70
19039;DHT22;9652;49.014;12.052;2024-03-23T01:50:46;12.50;72.70
19039;DHT22;9652;49.014;12.052;2024-03-23T01:53:14;12.40;72.70
19039;DHT22;9652;49.014;12.052;2024-03-23T01:55:43;12.40;72.70
19039;DHT22;9652;49.014;12.052;2024-03-23T01:58:09;12.40;72.70
19039;DHT22;9652;49.014;12.052;2024-03-23T02:00:36;12.40;72.70
19039;DHT22;9652;49.014;12.052;2024-03-23T02:03:22;12.30;72.70
19039;DHT22;9652;49.014;12.052;2024-03-23T02:05:49;12.30;73.60
19039;DHT22;9652;49.014;12.052;2024-03-23T02:08:17;12.20;72.90
19039;DHT22;9652;49.014;12.052;2024-03-23T02:10:46;12.20;72.90
19039;DHT22;9652;49.014;12.052;2024-03-23T02:13:14;12.30;73.00
19039;DHT22;9652;49.014;12.052;2024-03-23T02:15:41;12.20;73.00
19039;DHT22;9652;49.014;12.052;2024-03-23T02:18:09;12.10;73.00
19039;DHT22;9652;49.014;12.052;2024-03-23T02:20:36;12.10;73.10
19039;DHT22;9652;49.014;12.052;2024-03-23T02:23:04;12.10;73.00
19039;DHT22;9652;49.014;12.052;2024-03-23T02:25:32;12.00;73.00
19039;DHT22;9652;49.014;12.052;2024-03-23T02:27:59;12.10;73.10
19039;DHT22;9652;49.014;12.052;2024-03-23T02:30:26;12.00;73.00
19039;DHT22;9652;49.014;12.052;2024-03-23T02:32:52;11.90;73.00
19039;DHT22;9652;49.014;12.052;2024-03-23T02:35:19;12.00;73.20
19039;DHT22;9652;49.014;12.052;2024-03-23T02:37:46;11.90;73.10
19039;DHT22;9652;49.014;12.052;2024-03-23T02:40:15;11.80;73.20
19039;DHT22;9652;49.014;12.052;2024-03-23T02:42:42;11.80;73.30
19039;DHT22;9652;49.014;12.052;2024-03-23T02:45:09;11.80;73.30
19039;DHT22;9652;49.014;12.052;2024-03-23T02:47:35;11.80;73.30
19039;DHT22;9652;49.014;12.052;2024-03-23T02:50:02;11.80;73.50
19039;DHT22;9652;49.014;12.052;2024-03-23T02:52:29;11.70;73.50
19039;DHT22;9652;49.014;12.052;2024-03-23T02:54:57;11.70;73.50
19039;DHT22;9652;49.014;12.052;2024-03-23T02:57:24;11.70;73.60
19039;DHT22;9652;49.014;12.052;2024-03-23T02:59:51;11.70;73.80
19039;DHT22;9652;49.014;12.052;2024-03-23T03:02:18;11.70;73.90
19039;DHT22;9652;49.014;12.052;2024-03-23T03:04:45;11.70;74.10
19039;DHT22;9652;49.014;12.052;2024-03-23T03:07:11;11.60;74.40
19039;DHT22;9652;49.014;12.052;2024-03-23T03:09:38;11.60;74.60
19039;DHT22;9652;49.014;12.052;2024-03-23T03:12:05;11.70;75.10
19039;DHT22;9652;49.014;12.052;2024-03-23T03:14:34;11.70;75.40
19039;DHT22;9652;49.014;12.052;2024-03-23T03:17:00;11.70;75.60
19039;DHT22;9652;49.014;12.052;2024-03-23T03:19:27;11.70;75.50
19039;DHT22;9652;49.014;12.052;2024-03-23T03:21:53;11.70;75.50
19039;DHT22;9652;49.014;12.052;2024-03-23T03:24:20;11.80;75.50
19039;DHT22;9652;49.014;12.052;2024-03-23T03:26:46;11.80;75.50
19039;DHT22;9652;49.014;12.052;2024-03-23T03:29:15;11.80;75.40
19039;DHT22;9652;49.014;12.052;2024-03-23T03:31:42;11.80;75.50
19039;DHT22;9652;49.014;12.052;2024-03-23T03:34:10;11.80;75.80
19039;DHT22;9652;49.014;12.052;2024-03-23T03:36:36;11.80;76.00
19039;DHT22;9652;49.014;12.052;2024-03-23T03:39:03;11.80;76.00
19039;DHT22;9652;49.014;12.052;2024-03-23T03:41:30;11.90;76.10
19039;DHT22;9652;49.014;12.052;2024-03-23T03:43:58;11.90;76.10
19039;DHT22;9652;49.014;12.052;2024-03-23T03:46:27;11.90;76.10
19039;DHT22;9652;49.014;12.052;2024-03-23T03:48:56;11.90;76.30
19039;DHT22;9652;49.014;12.052;2024-03-23T03:51:22;12.00;76.70
19039;DHT22;9652;49.014;12.052;2024-03-23T03:53:49;12.00;76.60
19039;DHT22;9652;49.014;12.052;2024-03-23T03:56:15;12.10;76.60
19039;DHT22;9652;49.014;12.052;2024-03-23T03:58:42;12.10;76.60
19039;DHT22;9652;49.014;12.052;2024-03-23T04:01:09;12.10;76.80
19039;DHT22;9652;49.014;12.052;2024-03-23T04:03:36;12.20;77.00
19039;DHT22;9652;49.014;12.052;2024-03-23T04:06:04;12.20;77.10
19039;DHT22;9652;49.014;12.052;2024-03-23T04:08:31;12.30;77.30
19039;DHT22;9652;49.014;12.052;2024-03-23T04:10:57;12.30;77.20
19039;DHT22;9652;49.014;12.052;2024-03-23T04:13:24;12.40;77.10
19039;DHT22;9652;49.014;12.052;2024-03-23T04:15:54;12.40;76.90
19039;DHT22;9652;49.014;12.052;2024-03-23T04:18:21;12.40;76.90
19039;DHT22;9652;49.014;12.052;2024-03-23T04:20:48;12.50;76.60
19039;DHT22;9652;49.014;12.052;2024-03-23T04:23:16;12.50;76.50
19039;DHT22;9652;49.014;12.052;2024-03-23T04:25:42;12.50;76.40
19039;DHT22;9652;49.014;12.052;2024-03-23T04:28:10;12.50;76.20
19039;DHT22;9652;49.014;12.052;2024-03-23T04:30:36;12.50;76.00
19039;DHT22;9652;49.014;12.052;2024-03-23T04:33:03;12.50;76.00
19039;DHT22;9652;49.014;12.052;2024-03-23T04:35:30;12.50;75.90
19039;DHT22;9652;49.014;12.052;2024-03-23T04:37:57;12.50;76.00
19039;DHT22;9652;49.014;12.052;2024-03-23T04:40:26;12.50;76.10
19039;DHT22;9652;49.014;12.052;2024-03-23T04:42:53;12.50;76.20
19039;DHT22;9652;49.014;12.052;2024-03-23T04:45:20;12.50;76.30
19039;DHT22;9652;49.014;12.052;2024-03-23T04:47:48;12.50;76.40
19039;DHT22;9652;49.014;12.052;2024-03-23T04:50:15;12.50;76.30
19039;DHT22;9652;49.014;12.052;2024-03-23T04:52:44;12.50;76.30
19039;DHT22;9652;49.014;12.052;2024-03-23T04:55:11;12.50;76.30
19039;DHT22;9652;49.014;12.052;2024-03-23T04:57:41;12.60;76.50
19039;DHT22;9652;49.014;12.052;2024-03-23T05:00:08;12.60;76.50
19039;DHT22;9652;49.014;12.052;2024-03-23T05:02:43;12.60;76.40
19039;DHT22;9652;49.014;12.052;2024-03-23T05:05:11;12.60;76.40
19039;DHT22;9652;49.014;12.052;2024-03-23T05:07:38;12.60;76.40
19039;DHT22;9652;49.014;12.052;2024-03-23T05:10:05;12.70;76.50
19039;DHT22;9652;49.014;12.052;2024-03-23T05:12:35;12.70;76.50
19039;DHT22;9652;49.014;12.052;2024-03-23T05:15:05;12.70;76.40
19039;DHT22;9652;49.014;12.052;2024-03-23T05:17:31;12.70;76.50
19039;DHT22;9652;49.014;12.052;2024-03-23T05:19:58;12.70;76.40
19039;DHT22;9652;49.014;12.052;2024-03-23T05:22:25;12.80;76.40
19039;DHT22;9652;49.014;12.052;2024-03-23T05:24:52;12.80;76.40
19039;DHT22;9652;49.014;12.052;2024-03-23T05:27:19;12.80;76.50
19039;DHT22;9652;49.014;12.052;2024-03-23T05:29:46;12.90;76.50
19039;DHT22;9652;49.014;12.052;2024-03-23T05:32:14;12.90;76.50
19039;DHT22;9652;49.014;12.052;2024-03-23T05:34:41;12.90;76.60
19039;DHT22;9652;49.014;12.052;2024-03-23T05:37:07;12.90;76.50
19039;DHT22;9652;49.014;12.052;2024-03-23T05:39:34;13.00;76.50
19039;DHT22;9652;49.014;12.052;2024-03-23T05:42:00;13.00;76.40
19039;DHT22;9652;49.014;12.052;2024-03-23T05:44:27;13.00;76.00
19039;DHT22;9652;49.014;12.052;2024-03-23T05:46:54;13.00;75.70
19039;DHT22;9652;49.014;12.052;2024-03-23T05:49:22;13.00;75.50
19039;DHT22;9652;49.014;12.052;2024-03-23T05:51:49;13.00;75.40
19039;DHT22;9652;49.014;12.052;2024-03-23T05:54:16;13.00;75.20
19039;DHT22;9652;49.014;12.052;2024-03-23T05:56:42;13.00;75.00
19039;DHT22;9652;49.014;12.052;2024-03-23T05:59:09;12.90;74.90
19039;DHT22;9652;49.014;12.052;2024-03-23T06:01:35;12.90;74.80
19039;DHT22;9652;49.014;12.052;2024-03-23T06:04:02;12.90;74.70
19039;DHT22;9652;49.014;12.052;2024-03-23T06:06:30;12.80;74.60
19039;DHT22;9652;49.014;12.052;2024-03-23T06:08:57;12.80;74.60
19039;DHT22;9652;49.014;12.052;2024-03-23T06:11:23;12.80;74.60
19039;DHT22;9652;49.014;12.052;2024-03-23T06:13:52;12.80;74.90
19039;DHT22;9652;49.014;12.052;2024-03-23T06:16:18;12.80;75.00
19039;DHT22;9652;49.014;12.052;2024-03-23T06:18:49;12.80;75.10
19039;DHT22;9652;49.014;12.052;2024-03-23T06:21:15;12.80;75.10
19039;DHT22;9652;49.014;12.052;2024-03-23T06:23:44;12.80;75.20
19039;DHT22;9652;49.014;12.052;2024-03-23T06:26:16;12.80;75.30
19039;DHT22;9652;49.014;12.052;2024-03-23T06:28:43;12.80;75.40
19039;DHT22;9652;49.014;12.052;2024-03-23T06:31:10;12.80;75.50
19039;DHT22;9652;49.014;12.052;2024-03-23T06:33:37;12.80;75.50
19039;DHT22;9652;49.014;12.052;2024-03-23T06:36:04;12.90;75.60
19039;DHT22;9652;49.014;12.052;2024-03-23T06:38:32;12.90;75.60
19039;DHT22;9652;49.014;12.052;2024-03-23T06:41:02;13.00;75.70
19039;DHT22;9652;49.014;12.052;2024-03-23T06:43:29;13.00;75.70
19039;DHT22;9652;49.014;12.052;2024-03-23T06:45:55;13.10;75.80
19039;DHT22;9652;49.014;12.052;2024-03-23T06:48:23;13.20;75.90
19039;DHT22;9652;49.014;12.052;2024-03-23T06:50:49;13.20;76.10
19039;DHT22;9652;49.014;12.052;2024-03-23T06:53:16;13.30;76.10
19039;DHT22;9652;49.014;12.052;2024-03-23T06:55:50;13.40;76.50
19039;DHT22;9652;49.014;12.052;2024-03-23T06:58:19;13.50;76.90
19039;DHT22;9652;49.014;12.052;2024-03-23T07:00:45;13.60;77.10
19039;DHT22;9652;49.014;12.052;2024-03-23T07:03:13;13.80;77.00
19039;DHT22;9652;49.014;12.052;2024-03-23T07:05:39;13.90;76.50
19039;DHT22;9652;49.014;12.052;2024-03-23T07:08:06;14.10;76.30
19039;DHT22;9652;49.014;12.052;2024-03-23T07:10:32;14.20;76.80
19039;DHT22;9652;49.014;12.052;2024-03-23T07:12:59;14.40;76.30
19039;DHT22;9652;49.014;12.052;2024-03-23T07:15:27;14.50;76.20
19039;DHT22;9652;49.014;12.052;2024-03-23T07:17:54;14.60;76.00
19039;DHT22;9652;49.014;12.052;2024-03-23T07:20:20;14.80;75.90
19039;DHT22;9652;49.014;12.052;2024-03-23T07:22:47;14.90;75.60
19039;DHT22;9652;49.014;12.052;2024-03-23T07:25:13;15.00;75.50
19039;DHT22;9652;49.014;12.052;2024-03-23T07:27:40;15.10;75.00
19039;DHT22;9652;49.014;12.052;2024-03-23T07:30:07;15.20;74.90
19039;DHT22;9652;49.014;12.052;2024-03-23T07:32:36;15.30;74.60
19039;DHT22;9652;49.014;12.052;2024-03-23T07:35:03;15.40;74.40
19039;DHT22;9652;49.014;12.052;2024-03-23T07:37:31;15.40;74.00
19039;DHT22;9652;49.014;12.052;2024-03-23T07:39:57;15.40;73.80
19039;DHT22;9652;49.014;12.052;2024-03-23T07:42:25;15.50;73.40
19039;DHT22;9652;49.014;12.052;2024-03-23T07:44:52;15.40;73.00
19039;DHT22;9652;49.014;12.052;2024-03-23T07:47:22;15.40;72.70
19039;DHT22;9652;49.014;12.052;2024-03-23T07:49:50;15.40;72.40
19039;DHT22;9652;49.014;12.052;2024-03-23T07:52:17;15.30;72.10
19039;DHT22;9652;49.014;12.052;2024-03-23T07:54:43;15.30;72.10
19039;DHT22;9652;49.014;12.052;2024-03-23T07:57:10;15.30;71.60
19039;DHT22;9652;49.014;12.052;2024-03-23T07:59:36;15.20;71.50
19039;DHT22;9652;49.014;12.052;2024-03-23T08:02:04;15.10;71.50
19039;DHT22;9652;49.014;12.052;2024-03-23T08:04:30;15.00;71.80
19039;DHT22;9652;49.014;12.052;2024-03-23T08:06:59;14.90;72.20
19039;DHT22;9652;49.014;12.052;2024-03-23T08:09:25;14.80;72.50
19039;DHT22;9652;49.014;12.052;2024-03-23T08:11:52;14.70;72.50
19039;DHT22;9652;49.014;12.052;2024-03-23T08:14:18;14.60;72.60
19039;DHT22;9652;49.014;12.052;2024-03-23T08:16:46;14.50;72.60
19039;DHT22;9652;49.014;12.052;2024-03-23T08:19:15;14.40;72.70
19039;DHT22;9652;49.014;12.052;2024-03-23T08:21:42;14.30;72.90
19039;DHT22;9652;49.014;12.052;2024-03-23T08:24:09;14.20;73.20
19039;DHT22;9652;49.014;12.052;2024-03-23T08:26:36;14.20;73.60
19039;DHT22;9652;49.014;12.052;2024-03-23T08:29:03;14.10;73.60
19039;DHT22;9652;49.014;12.052;2024-03-23T08:31:30;14.10;73.90
19039;DHT22;9652;49.014;12.052;2024-03-23T08:33:57;14.00;74.10
19039;DHT22;9652;49.014;12.052;2024-03-23T08:36:24;14.00;74.30
19039;DHT22;9652;49.014;12.052;2024-03-23T08:38:50;13.90;74.30
19039;DHT22;9652;49.014;12.052;2024-03-23T08:41:20;13.90;74.30
19039;DHT22;9652;49.014;12.052;2024-03-23T08:43:46;13.90;74.20
19039;DHT22;9652;49.014;12.052;2024-03-23T08:46:15;13.80;74.40
19039;DHT22;9652;49.014;12.052;2024-03-23T08:48:42;13.80;74.80
19039;DHT22;9652;49.014;12.052;2024-03-23T08:51:11;13.80;75.00
19039;DHT22;9652;49.014;12.052;2024-03-23T08:53:39;13.80;74.80
19039;DHT22;9652;49.014;12.052;2024-03-23T08:56:07;13.80;74.70
19039;DHT22;9652;49.014;12.052;2024-03-23T08:58:37;13.80;74.80
19039;DHT22;9652;49.014;12.052;2024-03-23T09:01:07;13.90;75.20
19039;DHT22;9652;49.014;12.052;2024-03-23T09:03:34;13.90;75.10
19039;DHT22;9652;49.014;12.052;2024-03-23T09:06:06;14.00;75.00
19039;DHT22;9652;49.014;12.052;2024-03-23T09:08:32;14.10;75.10
19039;DHT22;9652;49.014;12.052;2024-03-23T09:11:04;14.10;75.50
19039;DHT22;9652;49.014;12.052;2024-03-23T09:13:32;14.30;75.50
19039;DHT22;9652;49.014;12.052;2024-03-23T09:16:01;14.40;75.50
19039;DHT22;9652;49.014;12.052;2024-03-23T09:18:28;14.50;75.00
19039;DHT22;9652;49.014;12.052;2024-03-23T09:20:57;14.70;74.50
19039;DHT22;9652;49.014;12.052;2024-03-23T09:23:23;14.70;74.20
19039;DHT22;9652;49.014;12.052;2024-03-23T09:25:51;14.70;74.20
19039;DHT22;9652;49.014;12.052;2024-03-23T09:28:17;15.00;73.60
19039;DHT22;9652;49.014;12.052;2024-03-23T09:30:44;15.10;73.30
19039;DHT22;9652;49.014;12.052;2024-03-23T09:33:12;15.10;72.80
19039;DHT22;9652;49.014;12.052;2024-03-23T09:35:40;15.40;73.10
19039;DHT22;9652;49.014;12.052;2024-03-23T09:38:07;15.40;73.10
19039;DHT22;9652;49.014;12.052;2024-03-23T09:40:39;15.60;73.10
19039;DHT22;9652;49.014;12.052;2024-03-23T09:43:06;15.70;72.60
19039;DHT22;9652;49.014;12.052;2024-03-23T09:45:38;15.80;72.10
19039;DHT22;9652;49.014;12.052;2024-03-23T09:48:06;16.00;71.40
19039;DHT22;9652;49.014;12.052;2024-03-23T09:50:37;16.20;71.60
19039;DHT22;9652;49.014;12.052;2024-03-23T09:53:04;16.30;70.50
19039;DHT22;9652;49.014;12.052;2024-03-23T09:55:33;16.50;70.40
19039;DHT22;9652;49.014;12.052;2024-03-23T09:58:01;16.60;70.20
19039;DHT22;9652;49.014;12.052;2024-03-23T10:00:28;16.80;69.90
19039;DHT22;9652;49.014;12.052;2024-03-23T10:02:55;17.10;69.00
19039;DHT22;9652;49.014;12.052;2024-03-23T10:05:24;17.20;67.50
19039;DHT22;9652;49.014;12.052;2024-03-23T10:07:51;17.40;66.80
19039;DHT22;9652;49.014;12.052;2024-03-23T10:10:19;17.50;63.60
19039;DHT22;9652;49.014;12.052;2024-03-23T10:12:48;17.50;62.90
19039;DHT22;9652;49.014;12.052;2024-03-23T10:15:19;17.50;62.90
19039;DHT22;9652;49.014;12.052;2024-03-23T10:17:46;17.40;61.90
19039;DHT22;9652;49.014;12.052;2024-03-23T10:20:19;17.40;62.60
19039;DHT22;9652;49.014;12.052;2024-03-23T10:22:46;17.70;62.00
19039;DHT22;9652;49.014;12.052;2024-03-23T10:25:15;17.20;60.30
19039;DHT22;9652;49.014;12.052;2024-03-23T10:27:41;17.10;61.20
19039;DHT22;9652;49.014;12.052;2024-03-23T10:30:10;16.90;61.90
19039;DHT22;9652;49.014;12.052;2024-03-23T10:32:38;16.80;62.40
19039;DHT22;9652;49.014;12.052;2024-03-23T10:35:15;16.70;61.50
19039;DHT22;9652;49.014;12.052;2024-03-23T10:37:45;16.70;60.70
19039;DHT22;9652;49.014;12.052;2024-03-23T10:40:14;16.60;61.30
19039;DHT22;9652;49.014;12.052;2024-03-23T10:42:41;16.60;60.20
19039;DHT22;9652;49.014;12.052;2024-03-23T10:45:09;16.60;60.10
19039;DHT22;9652;49.014;12.052;2024-03-23T10:47:36;16.60;60.10
19039;DHT22;9652;49.014;12.052;2024-03-23T10:50:05;16.60;59.40
19039;DHT22;9652;49.014;12.052;2024-03-23T10:52:32;16.70;59.00
19039;DHT22;9652;49.014;12.052;2024-03-23T10:55:01;16.70;58.00
19039;DHT22;9652;49.014;12.052;2024-03-23T10:57:37;16.60;58.00
19039;DHT22;9652;49.014;12.052;2024-03-23T11:00:11;16.70;58.30
19039;DHT22;9652;49.014;12.052;2024-03-23T11:02:38;16.70;58.70
19039;DHT22;9652;49.014;12.052;2024-03-23T11:05:29;16.60;59.20
19039;DHT22;9652;49.014;12.052;2024-03-23T11:07:55;16.70;58.50
19039;DHT22;9652;49.014;12.052;2024-03-23T11:10:25;16.80;59.10
19039;DHT22;9652;49.014;12.052;2024-03-23T11:12:54;16.80;58.40
19039;DHT22;9652;49.014;12.052;2024-03-23T11:15:21;16.90;57.90
19039;DHT22;9652;49.014;12.052;2024-03-23T11:18:02;16.60;58.20
19039;DHT22;9652;49.014;12.052;2024-03-23T11:20:33;16.80;57.40
19039;DHT22;9652;49.014;12.052;2024-03-23T11:23:00;16.80;58.20
19039;DHT22;9652;49.014;12.052;2024-03-23T11:25:29;16.80;57.80
19039;DHT22;9652;49.014;12.052;2024-03-23T11:27:57;16.70;58.00
19039;DHT22;9652;49.014;12.052;2024-03-23T11:30:36;16.70;58.00
19039;DHT22;9652;49.014;12.052;2024-03-23T11:33:04;16.70;57.80
19039;DHT22;9652;49.014;12.052;2024-03-23T11:35:33;16.60;58.30
19039;DHT22;9652;49.014;12.052;2024-03-23T11:38:04;16.60;58.20
19039;DHT22;9652;49.014;12.052;2024-03-23T11:40:33;16.60;57.70
19039;DHT22;9652;49.014;12.052;2024-03-23T11:43:03;16.70;58.00
19039;DHT22;9652;49.014;12.052;2024-03-23T11:45:35;16.70;58.00
19039;DHT22;9652;49.014;12.052;2024-03-23T11:48:04;16.80;57.30
19039;DHT22;9652;49.014;12.052;2024-03-23T11:50:34;16.80;57.70
19039;DHT22;9652;49.014;12.052;2024-03-23T11:53:13;16.90;57.30
19039;DHT22;9652;49.014;12.052;2024-03-23T11:55:42;17.00;56.80
19039;DHT22;9652;49.014;12.052;2024-03-23T11:58:14;17.00;57.50
19039;DHT22;9652;49.014;12.052;2024-03-23T12:00:42;17.10;56.50
19039;DHT22;9652;49.014;12.052;2024-03-23T12:03:16;17.20;56.20
19039;DHT22;9652;49.014;12.052;2024-03-23T12:05:48;17.20;55.50
19039;DHT22;9652;49.014;12.052;2024-03-23T12:08:20;17.20;54.50
19039;DHT22;9652;49.014;12.052;2024-03-23T12:10:50;17.10;55.20
19039;DHT22;9652;49.014;12.052;2024-03-23T12:13:20;17.00;54.90
19039;DHT22;9652;49.014;12.052;2024-03-23T12:15:49;17.00;55.50
19039;DHT22;9652;49.014;12.052;2024-03-23T12:18:17;16.90;54.70
19039;DHT22;9652;49.014;12.052;2024-03-23T12:20:44;16.70;54.30
19039;DHT22;9652;49.014;12.052;2024-03-23T12:23:11;16.70;54.70
19039;DHT22;9652;49.014;12.052;2024-03-23T12:25:42;16.60;54.90
19039;DHT22;9652;49.014;12.052;2024-03-23T12:28:08;16.50;55.60
19039;DHT22;9652;49.014;12.052;2024-03-23T12:30:39;16.50;55.30
19039;DHT22;9652;49.014;12.052;2024-03-23T12:33:06;16.50;55.20
19039;DHT22;9652;49.014;12.052;2024-03-23T12:35:33;16.50;55.10
19039;DHT22;9652;49.014;12.052;2024-03-23T12:38:00;16.50;54.00
19039;DHT22;9652;49.014;12.052;2024-03-23T12:40:27;16.40;53.80
19039;DHT22;9652;49.014;12.052;2024-03-23T12:42:53;16.30;53.90
19039;DHT22;9652;49.014;12.052;2024-03-23T12:45:21;16.20;53.70
19039;DHT22;9652;49.014;12.052;2024-03-23T12:47:49;16.10;54.00
19039;DHT22;9652;49.014;12.052;2024-03-23T12:50:18;15.90;54.10
19039;DHT22;9652;49.014;12.052;2024-03-23T12:52:44;15.90;54.20
19039;DHT22;9652;49.014;12.052;2024-03-23T12:55:11;15.80;53.80
19039;DHT22;9652;49.014;12.052;2024-03-23T12:57:37;15.80;53.10
19039;DHT22;9652;49.014;12.052;2024-03-23T13:00:06;15.70;53.50
19039;DHT22;9652;49.014;12.052;2024-03-23T13:02:36;15.60;53.00
19039;DHT22;9652;49.014;12.052;2024-03-23T13:05:06;15.60;53.40
19039;DHT22;9652;49.014;12.052;2024-03-23T13:07:34;15.50;53.10
19039;DHT22;9652;49.014;12.052;2024-03-23T13:10:03;15.50;53.30
19039;DHT22;9652;49.014;12.052;2024-03-23T13:12:30;15.50;53.20
19039;DHT22;9652;49.014;12.052;2024-03-23T13:14:58;15.50;53.60
19039;DHT22;9652;49.014;12.052;2024-03-23T13:17:25;15.50;53.20
19039;DHT22;9652;49.014;12.052;2024-03-23T13:19:53;15.50;53.70
19039;DHT22;9652;49.014;12.052;2024-03-23T13:22:22;15.60;53.70
19039;DHT22;9652;49.014;12.052;2024-03-23T13:24:49;15.70;53.80
19039;DHT22;9652;49.014;12.052;2024-03-23T13:27:16;15.70;53.80
19039;DHT22;9652;49.014;12.052;2024-03-23T13:29:44;15.80;53.20
19039;DHT22;9652;49.014;12.052;2024-03-23T13:32:13;15.80;52.40
19039;DHT22;9652;49.014;12.052;2024-03-23T13:34:40;15.80;52.20
19039;DHT22;9652;49.014;12.052;2024-03-23T13:37:06;15.80;52.10
19039;DHT22;9652;49.014;12.052;2024-03-23T13:39:36;15.70;52.20
19039;DHT22;9652;49.014;12.052;2024-03-23T13:42:03;15.70;52.00
19039;DHT22;9652;49.014;12.052;2024-03-23T13:44:30;15.60;52.00
19039;DHT22;9652;49.014;12.052;2024-03-23T13:46:57;15.50;52.50
19039;DHT22;9652;49.014;12.052;2024-03-23T13:49:26;15.40;52.10
19039;DHT22;9652;49.014;12.052;2024-03-23T13:51:53;15.30;52.50
19039;DHT22;9652;49.014;12.052;2024-03-23T13:54:20;15.30;52.70
19039;DHT22;9652;49.014;12.052;2024-03-23T13:56:49;15.10;53.30
19039;DHT22;9652;49.014;12.052;2024-03-23T13:59:17;15.00;53.30
19039;DHT22;9652;49.014;12.052;2024-03-23T14:01:43;15.00;53.60
19039;DHT22;9652;49.014;12.052;2024-03-23T14:04:11;15.00;53.30
19039;DHT22;9652;49.014;12.052;2024-03-23T14:06:37;14.80;53.00
19039;DHT22;9652;49.014;12.052;2024-03-23T14:09:04;14.70;53.10
19039;DHT22;9652;49.014;12.052;2024-03-23T14:11:31;14.50;53.30
19039;DHT22;9652;49.014;12.052;2024-03-23T14:13:59;14.60;53.50
19039;DHT22;9652;49.014;12.052;2024-03-23T14:16:25;14.70;53.60
19039;DHT22;9652;49.014;12.052;2024-03-23T14:18:53;14.70;53.80
19039;DHT22;9652;49.014;12.052;2024-03-23T14:21:19;14.80;53.30
19039;DHT22;9652;49.014;12.052;2024-03-23T14:23:46;14.90;53.70
19039;DHT22;9652;49.014;12.052;2024-03-23T14:26:12;15.00;53.70
19039;DHT22;9652;49.014;12.052;2024-03-23T14:28:39;15.00;53.50
19039;DHT22;9652;49.014;12.052;2024-03-23T14:31:07;15.20;53.50
19039;DHT22;9652;49.014;12.052;2024-03-23T14:33:36;15.30;53.10
19039;DHT22;9652;49.014;12.052;2024-03-23T14:36:04;15.30;53.10
19039;DHT22;9652;49.014;12.052;2024-03-23T14:38:31;15.30;52.80
19039;DHT22;9652;49.014;12.052;2024-03-23T14:40:58;15.30;52.90
19039;DHT22;9652;49.014;12.052;2024-03-23T14:43:26;15.30;53.10
19039;DHT22;9652;49.014;12.052;2024-03-23T14:46:08;15.30;52.90
19039;DHT22;9652;49.014;12.052;2024-03-23T14:48:36;15.30;52.10
19039;DHT22;9652;49.014;12.052;2024-03-23T14:51:03;15.30;52.80
19039;DHT22;9652;49.014;12.052;2024-03-23T14:53:32;15.30;52.80
19039;DHT22;9652;49.014;12.052;2024-03-23T14:55:59;15.30;52.70
19039;DHT22;9652;49.014;12.052;2024-03-23T14:58:28;15.30;52.70
19039;DHT22;9652;49.014;12.052;2024-03-23T15:01:00;15.30;52.50
19039;DHT22;9652;49.014;12.052;2024-03-23T15:03:32;15.20;52.00
19039;DHT22;9652;49.014;12.052;2024-03-23T15:05:59;15.20;52.40
19039;DHT22;9652;49.014;12.052;2024-03-23T15:08:27;15.10;52.60
19039;DHT22;9652;49.014;12.052;2024-03-23T15:10:54;15.10;52.60
19039;DHT22;9652;49.014;12.052;2024-03-23T15:13:24;15.10;52.30
19039;DHT22;9652;49.014;12.052;2024-03-23T15:15:51;15.00;52.20
19039;DHT22;9652;49.014;12.052;2024-03-23T15:18:18;15.00;52.30
19039;DHT22;9652;49.014;12.052;2024-03-23T15:20:57;14.90;51.80
19039;DHT22;9652;49.014;12.052;2024-03-23T15:23:24;14.80;51.90
19039;DHT22;9652;49.014;12.052;2024-03-23T15:25:54;14.80;52.60
19039;DHT22;9652;49.014;12.052;2024-03-23T15:28:21;14.70;52.60
19039;DHT22;9652;49.014;12.052;2024-03-23T15:30:48;14.80;52.90
19039;DHT22;9652;49.014;12.052;2024-03-23T15:33:14;14.80;52.80
19039;DHT22;9652;49.014;12.052;2024-03-23T15:35:42;14.80;53.00
19039;DHT22;9652;49.014;12.052;2024-03-23T15:38:10;14.80;53.10
19039;DHT22;9652;49.014;12.052;2024-03-23T15:40:37;14.80;53.00
19039;DHT22;9652;49.014;12.052;2024-03-23T15:43:03;14.90;52.80
19039;DHT22;9652;49.014;12.052;2024-03-23T15:45:31;14.90;52.80
19039;DHT22;9652;49.014;12.052;2024-03-23T15:47:58;15.00;53.10
19039;DHT22;9652;49.014;12.052;2024-03-23T15:50:25;15.00;53.20
19039;DHT22;9652;49.014;12.052;2024-03-23T15:52:51;15.10;53.20
19039;DHT22;9652;49.014;12.052;2024-03-23T15:55:21;15.10;53.10
19039;DHT22;9652;49.014;12.052;2024-03-23T15:57:48;15.20;53.10
19039;DHT22;9652;49.014;12.052;2024-03-23T16:00:16;15.20;53.00
19039;DHT22;9652;49.014;12.052;2024-03-23T16:02:43;15.30;52.80
19039;DHT22;9652;49.014;12.052;2024-03-23T16:05:11;15.30;52.70
19039;DHT22;9652;49.014;12.052;2024-03-23T16:07:38;15.20;52.40
19039;DHT22;9652;49.014;12.052;2024-03-23T16:10:06;15.30;52.30
19039;DHT22;9652;49.014;12.052;2024-03-23T16:12:36;15.20;52.20
19039;DHT22;9652;49.014;12.052;2024-03-23T16:15:05;15.20;52.20
19039;DHT22;9652;49.014;12.052;2024-03-23T16:17:32;15.10;52.10
19039;DHT22;9652;49.014;12.052;2024-03-23T16:20:02;15.10;52.00
19039;DHT22;9652;49.014;12.052;2024-03-23T16:22:28;15.10;51.80
19039;DHT22;9652;49.014;12.052;2024-03-23T16:24:56;15.00;51.90
19039;DHT22;9652;49.014;12.052;2024-03-23T16:27:22;15.00;51.80